KMEB

Laurinburg-Maxton Airport

Maxton, North Carolina, USA
METAR KMEB 151252Z AUTO 35005KT 8SM CLR 01/00 A2998 RMK AO2 SLP154 T00110000
Observed Flight Rules
Dec-15 @ 12:52 UTC (an hour ago) Visual Flight Rules
Wind Visibility Clouds
350° at 5 knots 8 miles
  • Clear skies
Temperatures Readings
Current 1°C / 34°F
Dewpoint 0°C / 32°F
Humidity 93%
Altimeter 29.98" Hg
Pressure 1015.4 hPa
Elevation 67
METAR KMEB 151252Z AUTO 35005KT 8SM CLR 01/00 A2998 RMK AO2 SLP154 T00110000
Observed Flight Rules
Dec-15 @ 12:52 UTC
(an hour ago)
VFR
Wind Visibility
350° at 5 knots 8 miles
Clouds
  • Clear skies
Temperature Dewpoint
1°C / 34°F 0°C / 32°F
Humidity Altimeter Pressure
93% 29.98" Hg 1015.4 hPa